Time;durP1;ratioP1;P1;durP2;ratioP2;P2;SDS_P1;SDS_P2;PMS_P1;PMS_P2;Temp;Humidity;BMP_temperature;BMP_pressure;BME280_temperature;BME280_humidity;BME280_pressure;Samples;Min_cycle;Max_cycle;Signal;HPM_P1;HPM_P2
2022/03/03 00:00:06;;;;;;;56.53;33.50;;;14.70;60.60;;;;;;4062999;29;20063;-62
2022/03/03 00:02:33;;;;;;;54.85;32.95;;;14.70;60.90;;;;;;4062452;29;20060;-62
2022/03/03 00:04:56;;;;;;;57.90;35.28;;;14.70;61.30;;;;;;4062549;29;20467;-62
2022/03/03 00:07:20;;;;;;;51.17;32.10;;;14.70;61.20;;;;;;4050902;29;20056;-62
2022/03/03 00:09:42;;;;;;;52.05;32.45;;;14.70;61.20;;;;;;4047341;29;20079;-62
2022/03/03 00:12:05;;;;;;;51.97;32.60;;;14.70;60.90;;;;;;4047068;29;20135;-62
2022/03/03 00:14:28;;;;;;;54.25;32.42;;;14.70;60.30;;;;;;4046620;29;20487;-62
2022/03/03 00:16:50;;;;;;;50.83;32.78;;;14.70;60.30;;;;;;4061067;29;20135;-62
2022/03/03 00:19:12;;;;;;;52.80;33.13;;;14.70;59.40;;;;;;4059336;29;20044;-62
2022/03/03 00:21:35;;;;;;;55.20;34.55;;;14.70;59.30;;;;;;4062388;29;20052;-62
2022/03/03 00:23:59;;;;;;;58.20;36.47;;;14.70;59.10;;;;;;4062969;29;20044;-62
2022/03/03 00:26:21;;;;;;;57.95;34.95;;;14.70;58.70;;;;;;4049707;29;20102;-62
2022/03/03 00:28:44;;;;;;;53.08;31.55;;;14.70;58.20;;;;;;4061228;29;20079;-62
2022/03/03 00:31:07;;;;;;;54.72;34.70;;;14.70;58.20;;;;;;4062688;29;20417;-62
2022/03/03 00:33:29;;;;;;;56.58;34.78;;;14.70;57.50;;;;;;4062628;29;20052;-62
2022/03/03 00:35:51;;;;;;;54.53;34.70;;;14.70;58.80;;;;;;4061791;29;20052;-62
2022/03/03 00:38:14;;;;;;;54.80;32.70;;;14.70;58.70;;;;;;4063089;29;20052;-61
2022/03/03 00:40:37;;;;;;;51.90;33.30;;;14.70;58.50;;;;;;4062817;29;20044;-62
2022/03/03 00:42:59;;;;;;;53.42;32.22;;;14.70;60.00;;;;;;4048202;29;20839;-62
2022/03/03 00:45:22;;;;;;;55.97;33.42;;;14.60;60.50;;;;;;4054723;29;20475;-62
2022/03/03 00:47:44;;;;;;;55.70;32.28;;;14.60;61.00;;;;;;4047803;29;20498;-61
2022/03/03 00:50:07;;;;;;;54.97;33.50;;;14.60;61.60;;;;;;4062516;29;20130;-62
2022/03/03 00:52:29;;;;;;;51.95;32.53;;;14.70;62.00;;;;;;4062216;29;20131;-62
2022/03/03 00:54:51;;;;;;;53.63;33.47;;;14.70;62.80;;;;;;4058361;29;20059;-62
2022/03/03 00:57:15;;;;;;;50.20;31.48;;;14.80;63.10;;;;;;4056205;29;20052;-61
2022/03/03 00:59:37;;;;;;;53.53;33.47;;;14.90;62.80;;;;;;4048105;29;20060;-62
2022/03/03 01:01:59;;;;;;;54.75;33.30;;;15.00;62.60;;;;;;4062583;29;20052;-61
2022/03/03 01:04:22;;;;;;;49.28;32.50;;;15.10;62.10;;;;;;4061742;29;20040;-61
2022/03/03 01:06:44;;;;;;;51.45;33.50;;;15.20;62.00;;;;;;4047635;29;20518;-61
2022/03/03 01:09:06;;;;;;;50.72;32.47;;;15.20;61.70;;;;;;4062229;29;20044;-62
2022/03/03 01:11:29;;;;;;;51.45;32.75;;;15.20;61.80;;;;;;4062545;29;20142;-62
2022/03/03 01:13:52;;;;;;;49.83;31.67;;;15.20;61.60;;;;;;4062243;29;20494;-62
2022/03/03 01:16:14;;;;;;;53.75;31.88;;;15.20;61.70;;;;;;4047066;29;20525;-62
2022/03/03 01:18:37;;;;;;;53.05;33.10;;;15.30;61.90;;;;;;4046989;29;20514;-61
2022/03/03 01:20:59;;;;;;;51.30;31.90;;;15.30;62.20;;;;;;4047113;29;20396;-62
2022/03/03 01:23:21;;;;;;;52.15;32.83;;;15.30;61.90;;;;;;4046723;29;20051;-62
2022/03/03 01:25:44;;;;;;;50.63;32.33;;;15.40;61.70;;;;;;4061716;29;20060;-62
2022/03/03 01:28:06;;;;;;;47.20;30.13;;;15.40;61.10;;;;;;4059069;29;20055;-61
2022/03/03 01:30:29;;;;;;;53.17;31.98;;;15.40;60.90;;;;;;4049504;29;20056;-62
2022/03/03 01:32:51;;;;;;;50.53;30.13;;;15.50;61.10;;;;;;4049137;29;20063;-62
2022/03/03 01:35:13;;;;;;;47.88;30.80;;;15.50;60.80;;;;;;4049812;29;20044;-62
2022/03/03 01:37:36;;;;;;;48.70;32.22;;;15.50;60.90;;;;;;4049401;29;20058;-62
2022/03/03 01:39:58;;;;;;;51.58;33.20;;;15.50;60.80;;;;;;4049870;29;20053;-61
2022/03/03 01:42:20;;;;;;;48.65;33.10;;;15.50;59.90;;;;;;4049772;29;20056;-62
2022/03/03 01:44:43;;;;;;;50.40;33.22;;;15.40;58.40;;;;;;4057417;29;20055;-62
2022/03/03 01:47:16;;;;;;;45.92;31.40;;;15.40;57.90;;;;;;4065211;29;20075;-62
2022/03/03 01:49:38;;;;;;;51.30;32.08;;;15.40;58.50;;;;;;4065042;29;20054;-62
2022/03/03 01:52:00;;;;;;;54.28;33.67;;;15.40;59.20;;;;;;4065032;29;20052;-62
2022/03/03 01:54:22;;;;;;;50.50;31.42;;;15.30;58.70;;;;;;4064049;29;20048;-62
2022/03/03 01:56:46;;;;;;;51.83;32.03;;;15.30;60.40;;;;;;4049700;29;20055;-62
2022/03/03 01:59:09;;;;;;;48.88;30.55;;;15.30;60.50;;;;;;4064249;29;20055;-62
2022/03/03 02:01:33;;;;;;;53.30;32.53;;;15.30;61.10;;;;;;4060705;29;20147;-62
2022/03/03 02:03:57;;;;;;;47.22;31.48;;;15.30;61.00;;;;;;4064176;29;20059;-62
2022/03/03 02:06:19;;;;;;;48.47;30.25;;;15.30;61.60;;;;;;4063565;29;20127;-62
2022/03/03 02:08:42;;;;;;;52.22;31.90;;;15.40;61.80;;;;;;4064734;29;20492;-62
2022/03/03 02:11:04;;;;;;;47.95;31.25;;;15.50;61.50;;;;;;4064508;29;20107;-62
2022/03/03 02:13:26;;;;;;;45.42;30.67;;;15.60;61.10;;;;;;4063667;29;20052;-62
2022/03/03 02:15:51;;;;;;;49.25;31.58;;;15.70;60.70;;;;;;4049517;29;20053;-62
2022/03/03 02:18:13;;;;;;;45.85;30.42;;;15.70;59.60;;;;;;4049331;29;20131;-62
2022/03/03 02:20:36;;;;;;;47.80;30.65;;;15.80;59.40;;;;;;4049799;29;20056;-62
2022/03/03 02:22:59;;;;;;;52.83;31.92;;;15.80;58.70;;;;;;4048614;29;20068;-62
2022/03/03 02:25:21;;;;;;;44.65;30.67;;;15.80;59.00;;;;;;4063674;29;20063;-62
2022/03/03 02:27:45;;;;;;;46.60;31.38;;;15.70;58.90;;;;;;4064209;29;20047;-62
2022/03/03 02:30:07;;;;;;;49.97;31.35;;;15.70;57.40;;;;;;4064364;29;20454;-62
2022/03/03 02:32:30;;;;;;;48.08;30.67;;;15.80;57.90;;;;;;4063425;29;20048;-62
2022/03/03 02:34:52;;;;;;;46.35;31.65;;;15.70;58.90;;;;;;4056264;29;20056;-62
2022/03/03 02:37:16;;;;;;;52.00;32.53;;;15.70;58.50;;;;;;4048029;29;20059;-62
2022/03/03 02:39:37;;;;;;;49.70;30.48;;;15.70;58.00;;;;;;4049785;29;20063;-62
2022/03/03 02:42:00;;;;;;;49.42;31.27;;;15.70;57.80;;;;;;4048948;29;20067;-63
2022/03/03 02:44:22;;;;;;;50.53;33.13;;;15.70;59.20;;;;;;4048162;29;20100;-62
2022/03/03 02:46:44;;;;;;;45.00;32.15;;;15.70;59.00;;;;;;4048283;29;20067;-62
2022/03/03 02:49:08;;;;;;;48.28;32.08;;;15.60;57.10;;;;;;4034202;29;20064;-62
2022/03/03 02:51:30;;;;;;;46.42;30.40;;;15.60;56.10;;;;;;4048187;29;20124;-63
2022/03/03 02:53:54;;;;;;;48.85;30.45;;;15.50;56.90;;;;;;4057956;29;20578;-63
2022/03/03 02:56:17;;;;;;;47.95;30.42;;;15.50;57.60;;;;;;4063629;29;20056;-62
2022/03/03 02:58:39;;;;;;;48.25;33.35;;;15.50;57.50;;;;;;4058621;29;20060;-62
2022/03/03 03:01:02;;;;;;;49.75;31.75;;;15.50;56.40;;;;;;4047645;29;20060;-62
2022/03/03 03:03:25;;;;;;;49.72;32.97;;;15.50;56.60;;;;;;4047843;29;20048;-62
2022/03/03 03:05:48;;;;;;;48.90;32.60;;;15.40;56.70;;;;;;4047586;29;20143;-62
2022/03/03 03:08:11;;;;;;;52.78;31.48;;;15.40;56.10;;;;;;4048694;29;20056;-62
2022/03/03 03:10:35;;;;;;;49.97;32.15;;;15.30;55.80;;;;;;4062901;29;20398;-62
2022/03/03 03:12:57;;;;;;;48.83;31.17;;;15.30;57.80;;;;;;4062351;29;20759;-62
2022/03/03 03:15:20;;;;;;;45.28;30.88;;;15.30;58.40;;;;;;4063467;29;20056;-62
2022/03/03 03:17:41;;;;;;;50.25;31.73;;;15.20;56.80;;;;;;4063531;29;20135;-62
2022/03/03 03:20:06;;;;;;;49.58;33.13;;;15.20;57.50;;;;;;4047059;29;20048;-62
2022/03/03 03:22:28;;;;;;;51.28;32.95;;;15.20;56.40;;;;;;4048135;29;20047;-62
2022/03/03 03:24:51;;;;;;;46.70;30.63;;;15.20;57.20;;;;;;4047796;29;20424;-62
2022/03/03 03:27:15;;;;;;;50.42;31.55;;;15.20;56.50;;;;;;4050206;29;20048;-62
2022/03/03 03:29:37;;;;;;;50.35;29.75;;;15.30;58.70;;;;;;4062700;29;20056;-62
2022/03/03 03:32:00;;;;;;;49.88;31.02;;;15.30;57.50;;;;;;4063250;29;20060;-62
2022/03/03 03:34:22;;;;;;;43.80;29.25;;;15.40;58.40;;;;;;4047859;29;20056;-61
2022/03/03 03:36:48;;;;;;;50.15;32.45;;;15.50;58.40;;;;;;4047506;29;20052;-62
2022/03/03 03:39:10;;;;;;;42.50;28.77;;;15.50;59.30;;;;;;4047700;29;20422;-61
2022/03/03 03:41:32;;;;;;;47.70;31.05;;;15.60;59.10;;;;;;4047837;29;20075;-61
2022/03/03 03:43:55;;;;;;;47.50;30.27;;;15.60;59.30;;;;;;4048307;29;21138;-62
2022/03/03 03:46:18;;;;;;;44.17;31.13;;;15.70;58.70;;;;;;4047672;29;20056;-62
2022/03/03 03:48:40;;;;;;;45.42;29.75;;;15.80;58.80;;;;;;4048028;29;20041;-62
2022/03/03 03:51:02;;;;;;;44.28;30.65;;;15.90;59.00;;;;;;4047427;29;20052;-62
2022/03/03 03:53:24;;;;;;;44.83;29.55;;;16.00;56.90;;;;;;4039979;29;20083;-62
2022/03/03 03:55:46;;;;;;;47.88;29.92;;;16.00;58.30;;;;;;4047410;29;20056;-62
2022/03/03 03:58:09;;;;;;;43.47;28.05;;;16.10;58.40;;;;;;4056285;29;20498;-62
2022/03/03 04:00:32;;;;;;;44.38;29.35;;;16.10;58.30;;;;;;4059831;29;20057;-62
2022/03/03 04:02:54;;;;;;;42.75;29.92;;;16.10;59.20;;;;;;4047753;29;20140;-61
2022/03/03 04:05:17;;;;;;;46.45;29.83;;;16.10;58.40;;;;;;4047545;29;20055;-62
2022/03/03 04:07:40;;;;;;;42.58;27.45;;;16.10;58.60;;;;;;4050517;29;20446;-62
2022/03/03 04:10:03;;;;;;;44.13;29.02;;;16.00;58.60;;;;;;4063337;29;20044;-62
2022/03/03 04:12:25;;;;;;;42.55;28.75;;;15.90;58.80;;;;;;4062616;29;20051;-62
2022/03/03 04:14:47;;;;;;;43.90;29.10;;;15.90;58.90;;;;;;4062439;29;20172;-61
2022/03/03 04:17:11;;;;;;;41.85;28.20;;;15.90;59.20;;;;;;4060335;29;20048;-62
2022/03/03 04:19:33;;;;;;;43.65;29.00;;;15.80;59.00;;;;;;4047263;29;20415;-62
2022/03/03 04:21:55;;;;;;;44.10;28.58;;;15.80;58.70;;;;;;4046846;29;20067;-62
2022/03/03 04:24:17;;;;;;;43.78;29.45;;;15.80;59.20;;;;;;4047831;29;20075;-62
2022/03/03 04:26:39;;;;;;;43.65;29.20;;;15.80;59.30;;;;;;4047312;29;20159;-61
2022/03/03 04:29:01;;;;;;;45.60;30.55;;;15.80;58.70;;;;;;4063079;29;20119;-63
2022/03/03 04:31:23;;;;;;;46.72;30.13;;;15.80;59.10;;;;;;4063072;29;20126;-63
2022/03/03 04:33:47;;;;;;;47.63;30.27;;;15.80;59.20;;;;;;4062667;29;20052;-63
2022/03/03 04:36:09;;;;;;;43.30;29.98;;;15.80;59.00;;;;;;4062776;29;20545;-62
2022/03/03 04:38:31;;;;;;;44.42;28.90;;;15.80;58.90;;;;;;4048193;29;20139;-63
2022/03/03 04:40:53;;;;;;;44.90;29.48;;;15.80;57.40;;;;;;4047214;29;20065;-63
2022/03/03 04:43:15;;;;;;;46.47;30.75;;;15.80;56.50;;;;;;4047423;29;20053;-63
2022/03/03 04:45:37;;;;;;;47.28;30.38;;;15.70;55.70;;;;;;4046664;29;20199;-63
2022/03/03 04:47:59;;;;;;;45.13;29.60;;;15.70;56.20;;;;;;4046648;29;20048;-63
2022/03/03 04:50:23;;;;;;;45.42;30.30;;;15.60;56.90;;;;;;4047066;29;20487;-63
2022/03/03 04:52:45;;;;;;;45.35;29.45;;;15.60;58.70;;;;;;4047251;29;20124;-63
2022/03/03 04:55:08;;;;;;;41.67;28.75;;;15.60;58.90;;;;;;4047381;29;20139;-63
2022/03/03 04:57:30;;;;;;;39.22;28.67;;;15.70;59.20;;;;;;4055090;29;20143;-62
2022/03/03 04:59:52;;;;;;;40.72;27.42;;;15.80;59.10;;;;;;4062946;29;20162;-63
2022/03/03 05:02:15;;;;;;;40.55;28.08;;;15.90;58.90;;;;;;4065433;29;20079;-63
2022/03/03 05:04:37;;;;;;;40.70;28.83;;;15.90;58.60;;;;;;4065265;29;20051;-62
2022/03/03 05:07:00;;;;;;;43.13;28.00;;;15.90;58.60;;;;;;4061516;29;20060;-63
2022/03/03 05:09:22;;;;;;;41.55;28.05;;;15.90;58.50;;;;;;4049710;29;20052;-63
2022/03/03 05:11:44;;;;;;;41.13;27.77;;;15.90;58.90;;;;;;4050082;29;20052;-63
2022/03/03 05:14:06;;;;;;;42.88;28.08;;;15.90;56.90;;;;;;4035640;29;20052;-63
2022/03/03 05:16:29;;;;;;;40.45;28.88;;;15.90;58.10;;;;;;4049792;29;20052;-64
2022/03/03 05:18:51;;;;;;;44.13;29.92;;;15.80;58.40;;;;;;4035263;29;20196;-63
2022/03/03 05:21:13;;;;;;;38.40;27.38;;;15.80;59.10;;;;;;4049939;29;20055;-63
2022/03/03 05:23:37;;;;;;;42.75;28.55;;;15.80;57.90;;;;;;4049366;29;20148;-64
2022/03/03 05:25:59;;;;;;;43.22;28.40;;;15.80;57.10;;;;;;4049755;29;20147;-63
2022/03/03 05:28:21;;;;;;;44.83;29.85;;;15.90;58.00;;;;;;4060833;29;20050;-63
2022/03/03 05:30:44;;;;;;;39.17;28.13;;;15.80;55.60;;;;;;4065088;29;20056;-61
2022/03/03 05:33:06;;;;;;;39.42;28.08;;;15.80;57.10;;;;;;4064536;29;20488;-62
2022/03/03 05:35:28;;;;;;;42.65;28.45;;;15.80;57.10;;;;;;4050814;29;20048;-62
2022/03/03 05:37:51;;;;;;;41.95;29.58;;;15.80;58.30;;;;;;4052114;29;20562;-62
2022/03/03 05:40:15;;;;;;;42.42;28.48;;;15.80;58.00;;;;;;4049881;29;20056;-64
2022/03/03 05:42:38;;;;;;;43.55;29.55;;;15.70;55.90;;;;;;4064811;29;20141;-63
2022/03/03 05:45:01;;;;;;;43.03;30.73;;;15.80;57.30;;;;;;4065010;29;20519;-63
2022/03/03 05:47:25;;;;;;;39.10;26.92;;;15.80;54.90;;;;;;4049660;29;20120;-64
2022/03/03 05:49:50;;;;;;;45.25;30.52;;;15.80;54.40;;;;;;4064218;29;20084;-64
2022/03/03 05:52:13;;;;;;;47.28;31.02;;;15.80;53.90;;;;;;4052073;29;20489;-64
2022/03/03 05:54:35;;;;;;;40.92;28.60;;;15.80;55.00;;;;;;4064644;29;20052;-64
2022/03/03 05:57:01;;;;;;;43.15;28.02;;;15.70;54.10;;;;;;4059524;29;20076;-62
2022/03/03 05:59:25;;;;;;;45.47;29.50;;;15.70;53.00;;;;;;4063816;29;20090;-63
2022/03/03 06:01:48;;;;;;;44.10;29.67;;;15.70;53.00;;;;;;4064591;29;20111;-64
2022/03/03 06:04:14;;;;;;;45.42;29.52;;;15.70;55.60;;;;;;4064316;29;20111;-63
2022/03/03 06:06:38;;;;;;;40.42;28.42;;;15.70;56.80;;;;;;4061761;29;20056;-63
2022/03/03 06:09:04;;;;;;;43.13;28.83;;;15.80;57.80;;;;;;4049240;29;20070;-63
2022/03/03 06:11:28;;;;;;;44.47;28.50;;;15.80;57.50;;;;;;4048715;29;20052;-63
2022/03/03 06:13:58;;;;;;;44.45;30.10;;;15.90;58.20;;;;;;4055158;29;20044;-63
2022/03/03 06:16:21;;;;;;;45.15;30.63;;;16.00;58.20;;;;;;4064352;29;20080;-63
2022/03/03 06:18:46;;;;;;;44.70;29.67;;;16.10;57.70;;;;;;4053246;29;20045;-63
2022/03/03 06:21:08;;;;;;;43.40;29.13;;;16.20;57.30;;;;;;4066270;29;20058;-64
2022/03/03 06:23:31;;;;;;;47.20;31.00;;;16.30;57.00;;;;;;4061868;29;20106;-63
2022/03/03 06:26:03;;;;;;;43.63;28.83;;;16.30;57.30;;;;;;4080028;29;20067;-63
2022/03/03 06:28:25;;;;;;;43.00;27.63;;;16.20;57.30;;;;;;4056693;29;20059;-63
2022/03/03 06:30:48;;;;;;;43.65;30.17;;;16.20;57.00;;;;;;4063858;29;20497;-64
2022/03/03 06:33:13;;;;;;;47.28;30.77;;;16.10;56.10;;;;;;4064072;29;20051;-63
2022/03/03 06:35:37;;;;;;;49.05;31.08;;;16.00;56.60;;;;;;4058712;29;20052;-63
2022/03/03 06:37:59;;;;;;;45.33;30.00;;;15.90;57.20;;;;;;4049808;29;20473;-63
2022/03/03 06:40:21;;;;;;;43.85;28.77;;;15.90;57.90;;;;;;4045470;29;20044;-62
2022/03/03 06:42:44;;;;;;;44.30;30.55;;;15.90;58.40;;;;;;4049885;29;20483;-64
2022/03/03 06:45:07;;;;;;;43.63;28.95;;;15.80;57.00;;;;;;4062647;29;20062;-64
2022/03/03 06:47:31;;;;;;;44.13;28.70;;;15.80;57.10;;;;;;4048284;29;20059;-64
2022/03/03 06:49:52;;;;;;;47.03;31.33;;;15.80;56.60;;;;;;4048336;29;20135;-64
2022/03/03 06:52:17;;;;;;;46.90;31.80;;;15.80;57.70;;;;;;4048410;29;20155;-64
2022/03/03 06:54:43;;;;;;;49.50;31.13;;;15.80;58.00;;;;;;4048604;29;20049;-64
2022/03/03 06:57:06;;;;;;;44.08;30.40;;;15.70;58.20;;;;;;4049376;29;20476;-64
2022/03/03 06:59:30;;;;;;;42.25;30.60;;;15.80;57.80;;;;;;4057073;29;20056;-64
2022/03/03 07:01:54;;;;;;;46.90;30.77;;;15.80;55.50;;;;;;4055560;29;20053;-64
2022/03/03 07:04:20;;;;;;;52.05;33.50;;;15.70;54.90;;;;;;4035664;29;20048;-65
2022/03/03 07:06:43;;;;;;;47.92;30.83;;;15.90;55.70;;;;;;4060774;29;20075;-63
2022/03/03 07:09:06;;;;;;;47.35;31.60;;;15.90;56.90;;;;;;4048600;29;20551;-64
2022/03/03 07:11:30;;;;;;;47.55;30.67;;;16.00;54.80;;;;;;4063220;29;20055;-64
2022/03/03 07:13:52;;;;;;;47.15;32.60;;;16.00;55.80;;;;;;4063658;29;20186;-64
2022/03/03 07:16:23;;;;;;;45.08;31.23;;;16.00;57.60;;;;;;4061452;29;20744;-64
2022/03/03 07:18:47;;;;;;;;;;;16.10;57.10;;;;;;4048071;29;20071;-64
2022/03/03 07:21:17;;;;;;;47.20;29.40;;;16.10;55.90;;;;;;4047203;29;19962;-64
2022/03/03 07:23:41;;;;;;;48.45;31.30;;;16.00;57.20;;;;;;4048010;29;20768;-64
2022/03/03 07:26:06;;;;;;;49.22;30.55;;;16.00;57.40;;;;;;4047114;29;20080;-64
2022/03/03 07:28:29;;;;;;;47.53;31.45;;;15.90;57.80;;;;;;4059506;29;20138;-64
2022/03/03 07:30:51;;;;;;;52.38;32.63;;;16.00;57.90;;;;;;4063160;29;20759;-63
2022/03/03 07:33:19;;;;;;;48.92;30.77;;;16.00;57.90;;;;;;4063487;29;20059;-64
2022/03/03 07:35:43;;;;;;;49.05;30.63;;;16.00;57.70;;;;;;4063592;29;20047;-64
2022/03/03 07:38:13;;;;;;;47.88;33.50;;;16.00;56.00;;;;;;4063489;29;20391;-63
2022/03/03 07:40:35;;;;;;;49.00;32.75;;;16.00;55.00;;;;;;4061819;29;20052;-64
2022/03/03 07:42:58;;;;;;;47.85;31.67;;;16.00;55.70;;;;;;4062705;29;20048;-64
2022/03/03 07:45:22;;;;;;;46.03;31.00;;;16.10;56.00;;;;;;4062087;29;20629;-69
2022/03/03 07:47:44;;;;;;;45.92;31.25;;;16.10;55.30;;;;;;4060429;29;20107;-63
2022/03/03 07:50:08;;;;;;;51.42;31.33;;;16.10;56.60;;;;;;4060721;29;20063;-62
2022/03/03 07:52:30;;;;;;;51.50;32.13;;;16.20;57.00;;;;;;4060300;29;20048;-62
2022/03/03 07:54:55;;;;;;;43.70;30.42;;;16.30;57.10;;;;;;4060100;29;20064;-62
2022/03/03 07:57:21;;;;;;;44.83;30.40;;;16.40;56.90;;;;;;4060480;29;20083;-63
2022/03/03 07:59:48;;;;;;;48.97;30.67;;;16.40;56.70;;;;;;4060152;29;20052;-62
2022/03/03 08:02:11;;;;;;;46.72;30.85;;;16.50;56.40;;;;;;4061233;29;20044;-62
2022/03/03 08:04:35;;;;;;;47.20;30.38;;;16.50;56.70;;;;;;4060649;29;20064;-62
2022/03/03 08:07:04;;;;;;;44.03;28.95;;;16.40;57.30;;;;;;4060602;29;20280;-63
2022/03/03 08:09:31;;;;;;;44.78;30.05;;;16.40;57.30;;;;;;4060577;29;20483;-64
2022/03/03 08:11:55;;;;;;;48.05;30.95;;;16.40;57.60;;;;;;4060460;29;20056;-61
2022/03/03 08:14:18;;;;;;;50.33;31.02;;;16.40;57.80;;;;;;4059786;29;20064;-62
2022/03/03 08:16:42;;;;;;;43.45;30.40;;;16.30;57.90;;;;;;4060461;29;20052;-63
2022/03/03 08:19:05;;;;;;;47.28;30.40;;;16.40;57.90;;;;;;4045736;29;20067;-62
2022/03/03 08:21:28;;;;;;;45.85;31.55;;;16.40;58.00;;;;;;4059757;29;20123;-62
2022/03/03 08:23:51;;;;;;;46.00;29.00;;;16.40;58.20;;;;;;4060224;29;20063;-62
2022/03/03 08:26:13;;;;;;;42.60;29.20;;;16.40;58.20;;;;;;4045213;29;20188;-62
2022/03/03 08:28:37;;;;;;;44.53;30.05;;;16.40;58.20;;;;;;4060649;29;20123;-63
2022/03/03 08:31:02;;;;;;;48.58;29.85;;;16.50;58.20;;;;;;4059272;29;20115;-62
2022/03/03 08:33:36;;;;;;;43.28;29.90;;;16.50;57.80;;;;;;4059782;29;20566;-62
2022/03/03 08:36:01;;;;;;;45.00;30.33;;;16.50;57.50;;;;;;4061967;29;20146;-62
2022/03/03 08:38:34;;;;;;;44.30;30.35;;;16.50;56.50;;;;;;4063249;29;20056;-61
2022/03/03 08:40:58;;;;;;;47.75;33.15;;;16.40;56.20;;;;;;4062766;29;20466;-62
2022/03/03 08:43:21;;;;;;;43.83;30.85;;;16.30;56.20;;;;;;4036847;29;20063;-62
2022/03/03 08:45:45;;;;;;;43.47;30.70;;;16.30;53.60;;;;;;4062473;29;20513;-62
2022/03/03 08:48:10;;;;;;;43.75;29.90;;;16.30;55.50;;;;;;4062535;29;20063;-62
2022/03/03 08:50:34;;;;;;;47.35;30.15;;;16.30;56.10;;;;;;4063385;29;20043;-62
2022/03/03 08:52:58;;;;;;;44.38;29.50;;;16.30;57.20;;;;;;4063217;29;20155;-62
2022/03/03 08:55:21;;;;;;;48.33;30.83;;;16.30;56.00;;;;;;4063037;29;20135;-62
2022/03/03 08:57:43;;;;;;;44.85;30.05;;;16.20;55.20;;;;;;4062684;29;20135;-62
2022/03/03 09:00:09;;;;;;;47.35;31.35;;;16.20;55.70;;;;;;4062753;29;20056;-62
2022/03/03 09:02:33;;;;;;;47.00;33.05;;;16.20;54.10;;;;;;4062499;29;20059;-62
2022/03/03 09:04:56;;;;;;;48.95;32.40;;;16.10;53.50;;;;;;4062323;29;20503;-62
2022/03/03 09:07:19;;;;;;;41.40;28.80;;;16.10;54.00;;;;;;4048866;29;20076;-62
2022/03/03 09:09:41;;;;;;;45.75;31.20;;;16.10;55.30;;;;;;4062718;29;20056;-63
2022/03/03 09:12:05;;;;;;;47.72;30.35;;;16.10;54.50;;;;;;4062438;29;20497;-62
2022/03/03 09:14:27;;;;;;;44.47;28.83;;;16.20;56.40;;;;;;4062428;29;20048;-62
2022/03/03 09:16:49;;;;;;;42.03;29.17;;;16.20;56.40;;;;;;4048522;29;20131;-62
2022/03/03 09:19:13;;;;;;;44.45;28.92;;;16.30;54.80;;;;;;4063067;29;20478;-62
2022/03/03 09:21:35;;;;;;;44.50;29.33;;;16.30;56.40;;;;;;4062682;29;20076;-62
2022/03/03 09:23:58;;;;;;;43.47;28.45;;;16.40;57.00;;;;;;4062226;29;20055;-63
2022/03/03 09:26:20;;;;;;;40.28;27.73;;;16.40;57.10;;;;;;4062172;29;20107;-61
2022/03/03 09:28:43;;;;;;;43.20;28.52;;;16.40;57.10;;;;;;4062293;29;20052;-62
2022/03/03 09:31:06;;;;;;;46.97;27.77;;;16.40;56.50;;;;;;4062096;29;20140;-62
2022/03/03 09:33:28;;;;;;;41.78;28.50;;;16.40;55.80;;;;;;4061804;29;20050;-62
2022/03/03 09:35:53;;;;;;;41.78;27.98;;;16.40;57.30;;;;;;4061438;29;20143;-63
2022/03/03 09:38:15;;;;;;;41.75;27.45;;;16.40;57.90;;;;;;4047917;29;20051;-62
2022/03/03 09:40:37;;;;;;;37.33;24.88;;;16.40;58.70;;;;;;4061854;29;21182;-63
2022/03/03 09:43:01;;;;;;;36.40;24.55;;;16.50;59.10;;;;;;4061818;29;20052;-64
2022/03/03 09:45:25;;;;;;;40.60;25.60;;;16.60;59.30;;;;;;4062036;29;20137;-63
2022/03/03 09:47:47;;;;;;;37.25;24.67;;;16.80;58.50;;;;;;4061975;29;20491;-63
2022/03/03 09:50:10;;;;;;;34.05;23.35;;;16.80;58.50;;;;;;4061314;29;20126;-64
2022/03/03 09:52:34;;;;;;;35.13;23.05;;;16.90;59.60;;;;;;4062604;29;20410;-63
2022/03/03 09:54:57;;;;;;;31.73;22.13;;;16.90;58.40;;;;;;4062498;29;20407;-63
2022/03/03 09:57:20;;;;;;;31.83;22.27;;;16.90;58.40;;;;;;4061951;29;20060;-63
2022/03/03 09:59:42;;;;;;;32.05;21.75;;;16.80;58.30;;;;;;4037213;29;20171;-63
2022/03/03 10:02:06;;;;;;;25.23;19.85;;;16.80;58.20;;;;;;4061054;29;20140;-63
2022/03/03 10:04:29;;;;;;;30.23;21.10;;;16.70;57.00;;;;;;4062173;29;20056;-63
2022/03/03 10:06:52;;;;;;;28.65;20.80;;;16.60;55.30;;;;;;4061706;29;20063;-63
2022/03/03 10:09:17;;;;;;;29.65;21.77;;;16.60;56.50;;;;;;4061587;29;20063;-63
2022/03/03 10:11:41;;;;;;;28.65;20.50;;;16.50;57.10;;;;;;4061852;29;20546;-63
2022/03/03 10:14:03;;;;;;;28.10;19.23;;;16.40;57.60;;;;;;4061428;29;20564;-63
2022/03/03 10:16:29;;;;;;;30.88;20.83;;;16.40;57.90;;;;;;4061634;29;20063;-63
2022/03/03 10:19:03;;;;;;;28.23;19.23;;;16.30;58.20;;;;;;4061422;29;20079;-63
2022/03/03 10:21:28;;;;;;;25.23;18.05;;;16.30;59.00;;;;;;4061693;29;20124;-63
2022/03/03 10:23:50;;;;;;;27.40;19.27;;;16.20;58.20;;;;;;4061849;29;20090;-63
2022/03/03 10:26:14;;;;;;;24.63;18.45;;;16.20;57.60;;;;;;4061254;29;20107;-63
2022/03/03 10:28:38;;;;;;;26.23;18.75;;;16.20;57.80;;;;;;4060527;29;20054;-63
2022/03/03 10:31:04;;;;;;;27.38;19.35;;;16.30;57.60;;;;;;4061476;29;20060;-63
2022/03/03 10:33:29;;;;;;;27.40;18.80;;;16.30;57.50;;;;;;4061883;29;20052;-63
2022/03/03 10:36:16;;;;;;;26.35;18.73;;;16.40;57.30;;;;;;4061542;29;20379;-62
2022/03/03 10:38:53;;;;;;;25.52;17.67;;;16.40;56.30;;;;;;4060000;29;20051;-63
2022/03/03 10:41:35;;;;;;;31.75;21.50;;;16.30;56.30;;;;;;4061979;29;20115;-63
2022/03/03 10:44:00;;;;;;;28.20;20.75;;;16.30;53.90;;;;;;4061708;29;20085;-63
2022/03/03 10:46:22;;;;;;;28.17;19.83;;;16.30;53.00;;;;;;4061842;29;20059;-63
2022/03/03 10:48:45;;;;;;;30.00;21.58;;;16.20;54.10;;;;;;4061849;29;20058;-64
2022/03/03 10:51:11;;;;;;;27.05;21.67;;;16.20;52.10;;;;;;4061915;29;20048;-63
2022/03/03 10:53:35;;;;;;;29.63;20.05;;;16.10;53.80;;;;;;4061603;29;20062;-63
2022/03/03 10:56:02;;;;;;;26.92;19.55;;;16.10;52.90;;;;;;4061490;29;20056;-63
2022/03/03 10:58:44;;;;;;;29.75;19.98;;;16.00;54.10;;;;;;4060788;29;20056;-64
2022/03/03 11:01:06;;;;;;;25.60;20.20;;;16.00;55.20;;;;;;4061794;29;20080;-64
2022/03/03 11:03:30;;;;;;;30.15;21.45;;;16.00;55.20;;;;;;4061309;29;20075;-63
2022/03/03 11:05:54;;;;;;;29.70;21.63;;;16.00;53.70;;;;;;4045918;29;20061;-63
2022/03/03 11:08:17;;;;;;;31.02;24.27;;;16.00;51.00;;;;;;4060939;29;20048;-64
2022/03/03 11:10:39;;;;;;;32.80;24.75;;;16.00;52.40;;;;;;4061088;29;20047;-63
2022/03/03 11:13:02;;;;;;;30.42;21.25;;;16.00;51.10;;;;;;4061271;29;20062;-63
2022/03/03 11:15:28;;;;;;;30.75;22.90;;;16.00;52.20;;;;;;4046271;29;20582;-63
2022/03/03 11:17:52;;;;;;;28.70;20.80;;;16.00;53.50;;;;;;4060812;29;20083;-63
2022/03/03 11:20:17;;;;;;;32.05;24.70;;;15.90;53.10;;;;;;4045847;29;20419;-63
2022/03/03 11:22:40;;;;;;;30.67;23.70;;;16.00;51.50;;;;;;4060586;29;20073;-63
2022/03/03 11:25:06;;;;;;;27.40;21.05;;;16.00;52.10;;;;;;4060671;29;20139;-63
2022/03/03 11:27:35;;;;;;;29.90;21.27;;;16.10;51.80;;;;;;4059435;29;20581;-62
2022/03/03 11:30:30;;;;;;;28.38;21.73;;;16.10;52.90;;;;;;4060214;29;20060;-63
2022/03/03 11:33:20;;;;;;;30.30;20.27;;;16.10;50.10;;;;;;4042993;29;20056;-63
2022/03/03 11:35:49;;;;;;;29.20;21.02;;;16.10;51.40;;;;;;4060683;29;20052;-63
2022/03/03 11:38:11;;;;;;;25.75;19.25;;;16.10;49.90;;;;;;4060295;29;20052;-63
2022/03/03 11:40:34;;;;;;;28.10;20.95;;;16.10;51.00;;;;;;4059632;29;20044;-63
2022/03/03 11:42:57;;;;;;;26.45;21.02;;;16.00;50.80;;;;;;4060484;29;20060;-63
2022/03/03 11:45:34;;;;;;;26.60;20.17;;;16.00;52.00;;;;;;4059812;29;20141;-62
2022/03/03 11:48:11;;;;;;;25.65;21.38;;;16.00;52.70;;;;;;4058657;29;20078;-63
2022/03/03 11:50:33;;;;;;;26.42;19.85;;;15.90;49.80;;;;;;4059918;29;20593;-61
2022/03/03 11:53:18;;;;;;;29.70;22.33;;;15.90;47.60;;;;;;4060346;29;20044;-62
2022/03/03 11:55:43;;;;;;;27.58;19.55;;;15.80;48.20;;;;;;4059799;29;20450;-62
2022/03/03 11:58:09;;;;;;;26.92;19.17;;;15.70;49.70;;;;;;4060301;29;20052;-63
2022/03/03 12:00:35;;;;;;;24.88;19.02;;;15.70;52.10;;;;;;4060383;29;20060;-63
2022/03/03 12:03:01;;;;;;;33.45;21.85;;;15.60;51.50;;;;;;4060061;29;20060;-63
2022/03/03 12:05:35;;;;;;;29.60;20.58;;;15.50;52.00;;;;;;4060667;29;20070;-62
2022/03/03 12:07:58;;;;;;;30.42;21.65;;;15.50;52.70;;;;;;4060642;29;20545;-63
2022/03/03 12:10:20;;;;;;;26.83;19.52;;;15.50;52.90;;;;;;4059191;29;20040;-63